sensor_id;sensor_type;location;lat;lon;timestamp;pressure;altitude;pressure_sealevel;temperature;humidity
79617;BME280;69097;52.132;5.422;2024-01-30T00:01:34;102770.78;;;7.17;100.00
79617;BME280;69097;52.132;5.422;2024-01-30T00:04:00;102772.78;;;7.17;100.00
79617;BME280;69097;52.132;5.422;2024-01-30T00:06:27;102766.72;;;7.15;100.00
79617;BME280;69097;52.132;5.422;2024-01-30T00:08:54;102772.69;;;7.13;100.00
79617;BME280;69097;52.132;5.422;2024-01-30T00:11:20;102779.44;;;7.12;100.00
79617;BME280;69097;52.132;5.422;2024-01-30T00:13:47;102778.19;;;7.10;100.00
79617;BME280;69097;52.132;5.422;2024-01-30T00:16:23;102764.22;;;7.10;100.00
79617;BME280;69097;52.132;5.422;2024-01-30T00:18:52;102777.38;;;7.09;100.00
79617;BME280;69097;52.132;5.422;2024-01-30T00:21:20;102769.38;;;7.08;100.00
79617;BME280;69097;52.132;5.422;2024-01-30T00:23:47;102768.56;;;7.07;100.00
79617;BME280;69097;52.132;5.422;2024-01-30T00:26:14;102766.94;;;7.06;100.00
79617;BME280;69097;52.132;5.422;2024-01-30T00:28:41;102775.28;;;7.06;100.00
79617;BME280;69097;52.132;5.422;2024-01-30T00:31:08;102770.44;;;7.03;100.00
79617;BME280;69097;52.132;5.422;2024-01-30T00:33:39;102770.09;;;7.05;100.00
79617;BME280;69097;52.132;5.422;2024-01-30T00:36:07;102771.25;;;7.04;100.00
79617;BME280;69097;52.132;5.422;2024-01-30T00:38:33;102771.25;;;7.04;100.00
79617;BME280;69097;52.132;5.422;2024-01-30T00:41:00;102763.72;;;7.04;100.00
79617;BME280;69097;52.132;5.422;2024-01-30T00:43:28;102770.81;;;7.02;100.00
79617;BME280;69097;52.132;5.422;2024-01-30T00:45:54;102760.03;;;7.00;100.00
79617;BME280;69097;52.132;5.422;2024-01-30T00:48:21;102765.59;;;7.00;100.00
79617;BME280;69097;52.132;5.422;2024-01-30T00:50:47;102767.56;;;7.00;100.00
79617;BME280;69097;52.132;5.422;2024-01-30T00:53:14;102764.00;;;6.99;100.00
79617;BME280;69097;52.132;5.422;2024-01-30T00:55:40;102759.19;;;7.00;100.00
79617;BME280;69097;52.132;5.422;2024-01-30T00:58:07;102770.72;;;6.98;100.00
79617;BME280;69097;52.132;5.422;2024-01-30T01:00:34;102765.16;;;6.98;100.00
79617;BME280;69097;52.132;5.422;2024-01-30T01:03:01;102761.13;;;6.96;100.00
79617;BME280;69097;52.132;5.422;2024-01-30T01:05:28;102764.69;;;6.96;100.00
79617;BME280;69097;52.132;5.422;2024-01-30T01:07:54;102764.69;;;6.96;100.00
79617;BME280;69097;52.132;5.422;2024-01-30T01:10:21;102765.88;;;6.95;100.00
79617;BME280;69097;52.132;5.422;2024-01-30T01:12:48;102756.69;;;6.95;100.00
79617;BME280;69097;52.132;5.422;2024-01-30T01:15:14;102755.91;;;6.94;100.00
79617;BME280;69097;52.132;5.422;2024-01-30T01:17:40;102757.88;;;6.94;100.00
79617;BME280;69097;52.132;5.422;2024-01-30T01:20:07;102746.72;;;6.94;100.00
79617;BME280;69097;52.132;5.422;2024-01-30T01:22:34;102745.91;;;6.93;100.00
79617;BME280;69097;52.132;5.422;2024-01-30T01:25:01;102743.09;;;6.93;100.00
79617;BME280;69097;52.132;5.422;2024-01-30T01:27:27;102739.50;;;6.93;100.00
79617;BME280;69097;52.132;5.422;2024-01-30T01:29:54;102727.56;;;6.92;100.00
79617;BME280;69097;52.132;5.422;2024-01-30T01:32:20;102721.16;;;6.92;100.00
79617;BME280;69097;52.132;5.422;2024-01-30T01:34:47;102724.31;;;6.90;100.00
79617;BME280;69097;52.132;5.422;2024-01-30T01:37:14;102727.91;;;6.91;100.00
79617;BME280;69097;52.132;5.422;2024-01-30T01:39:41;102731.88;;;6.90;100.00
79617;BME280;69097;52.132;5.422;2024-01-30T01:42:07;102728.63;;;6.88;100.00
79617;BME280;69097;52.132;5.422;2024-01-30T01:44:33;102729.44;;;6.88;100.00
79617;BME280;69097;52.132;5.422;2024-01-30T01:47:00;102733.41;;;6.87;100.00
79617;BME280;69097;52.132;5.422;2024-01-30T01:49:27;102735.38;;;6.87;100.00
79617;BME280;69097;52.132;5.422;2024-01-30T01:51:55;102725.41;;;6.86;100.00
79617;BME280;69097;52.132;5.422;2024-01-30T01:54:26;102731.78;;;6.86;100.00
79617;BME280;69097;52.132;5.422;2024-01-30T01:56:53;102731.78;;;6.86;100.00
79617;BME280;69097;52.132;5.422;2024-01-30T01:59:20;102722.25;;;6.87;100.00
79617;BME280;69097;52.132;5.422;2024-01-30T02:01:48;102723.84;;;6.88;100.00
79617;BME280;69097;52.132;5.422;2024-01-30T02:04:17;102732.22;;;6.88;100.00
79617;BME280;69097;52.132;5.422;2024-01-30T02:06:44;102723.84;;;6.88;100.00
79617;BME280;69097;52.132;5.422;2024-01-30T02:09:10;102728.63;;;6.88;100.00
79617;BME280;69097;52.132;5.422;2024-01-30T02:11:37;102718.66;;;6.87;100.00
79617;BME280;69097;52.132;5.422;2024-01-30T02:14:04;102725.03;;;6.87;100.00
79617;BME280;69097;52.132;5.422;2024-01-30T02:16:31;102717.81;;;6.86;100.00
79617;BME280;69097;52.132;5.422;2024-01-30T02:18:58;102718.28;;;6.88;100.00
79617;BME280;69097;52.132;5.422;2024-01-30T02:21:24;102724.69;;;6.89;100.00
79617;BME280;69097;52.132;5.422;2024-01-30T02:23:52;102721.06;;;6.88;100.00
79617;BME280;69097;52.132;5.422;2024-01-30T02:26:18;102715.50;;;6.88;100.00
79617;BME280;69097;52.132;5.422;2024-01-30T02:28:45;102726.66;;;6.88;100.00
79617;BME280;69097;52.132;5.422;2024-01-30T02:31:11;102726.66;;;6.88;100.00
79617;BME280;69097;52.132;5.422;2024-01-30T02:33:38;102730.25;;;6.89;100.00
79617;BME280;69097;52.132;5.422;2024-01-30T02:36:04;102729.44;;;6.88;100.00
79617;BME280;69097;52.132;5.422;2024-01-30T02:38:31;102730.25;;;6.89;100.00
79617;BME280;69097;52.132;5.422;2024-01-30T02:40:57;102735.00;;;6.88;100.00
79617;BME280;69097;52.132;5.422;2024-01-30T02:43:24;102728.63;;;6.88;100.00
79617;BME280;69097;52.132;5.422;2024-01-30T02:45:50;102730.63;;;6.87;100.00
79617;BME280;69097;52.132;5.422;2024-01-30T02:48:17;102719.09;;;6.89;100.00
79617;BME280;69097;52.132;5.422;2024-01-30T02:50:43;102721.53;;;6.90;100.00
79617;BME280;69097;52.132;5.422;2024-01-30T02:53:10;102711.53;;;6.89;100.00
79617;BME280;69097;52.132;5.422;2024-01-30T02:55:36;102707.94;;;6.89;100.00
79617;BME280;69097;52.132;5.422;2024-01-30T02:58:03;102709.91;;;6.88;100.00
79617;BME280;69097;52.132;5.422;2024-01-30T03:00:30;102698.75;;;6.88;100.00
79617;BME280;69097;52.132;5.422;2024-01-30T03:02:56;102699.94;;;6.87;100.00
79617;BME280;69097;52.132;5.422;2024-01-30T03:05:23;102699.94;;;6.87;100.00
79617;BME280;69097;52.132;5.422;2024-01-30T03:07:49;102698.31;;;6.86;100.00
79617;BME280;69097;52.132;5.422;2024-01-30T03:10:16;102691.13;;;6.85;100.00
79617;BME280;69097;52.132;5.422;2024-01-30T03:12:42;102706.25;;;6.84;100.00
79617;BME280;69097;52.132;5.422;2024-01-30T03:15:09;102693.09;;;6.85;100.00
79617;BME280;69097;52.132;5.422;2024-01-30T03:17:36;102685.91;;;6.84;100.00
79617;BME280;69097;52.132;5.422;2024-01-30T03:20:04;102681.16;;;6.84;100.00
79617;BME280;69097;52.132;5.422;2024-01-30T03:22:32;102679.50;;;6.83;100.00
79617;BME280;69097;52.132;5.422;2024-01-30T03:24:58;102668.34;;;6.83;100.00
79617;BME280;69097;52.132;5.422;2024-01-30T03:27:25;102675.56;;;6.84;100.00
79617;BME280;69097;52.132;5.422;2024-01-30T03:29:51;102679.97;;;6.85;100.00
79617;BME280;69097;52.132;5.422;2024-01-30T03:32:18;102679.97;;;6.85;100.00
79617;BME280;69097;52.132;5.422;2024-01-30T03:34:44;102676.44;;;6.88;100.00
79617;BME280;69097;52.132;5.422;2024-01-30T03:37:11;102680.88;;;6.89;100.00
79617;BME280;69097;52.132;5.422;2024-01-30T03:39:37;102684.44;;;6.90;100.00
79617;BME280;69097;52.132;5.422;2024-01-30T03:42:04;102680.88;;;6.89;100.00
79617;BME280;69097;52.132;5.422;2024-01-30T03:44:30;102670.50;;;6.90;100.00
79617;BME280;69097;52.132;5.422;2024-01-30T03:46:57;102674.09;;;6.90;100.00
79617;BME280;69097;52.132;5.422;2024-01-30T03:49:23;102667.34;;;6.91;100.00
79617;BME280;69097;52.132;5.422;2024-01-30T03:51:50;102656.63;;;6.93;100.00
79617;BME280;69097;52.132;5.422;2024-01-30T03:54:17;102669.44;;;6.94;100.00
79617;BME280;69097;52.132;5.422;2024-01-30T03:56:43;102662.66;;;6.95;100.00
79617;BME280;69097;52.132;5.422;2024-01-30T03:59:09;102658.69;;;6.96;100.00
79617;BME280;69097;52.132;5.422;2024-01-30T04:01:36;102653.94;;;6.97;100.00
79617;BME280;69097;52.132;5.422;2024-01-30T04:04:03;102660.31;;;6.97;100.00
79617;BME280;69097;52.132;5.422;2024-01-30T04:06:29;102666.69;;;6.98;100.00
79617;BME280;69097;52.132;5.422;2024-01-30T04:08:56;102666.34;;;6.99;100.00
79617;BME280;69097;52.132;5.422;2024-01-30T04:11:22;102659.59;;;7.00;100.00
79617;BME280;69097;52.132;5.422;2024-01-30T04:13:49;102661.19;;;7.01;100.00
79617;BME280;69097;52.132;5.422;2024-01-30T04:16:20;102665.25;;;7.04;100.00
79617;BME280;69097;52.132;5.422;2024-01-30T04:18:47;102677.66;;;7.06;100.00
79617;BME280;69097;52.132;5.422;2024-01-30T04:21:14;102672.06;;;7.06;100.00
79617;BME280;69097;52.132;5.422;2024-01-30T04:23:41;102668.13;;;7.07;100.00
79617;BME280;69097;52.132;5.422;2024-01-30T04:26:08;102664.16;;;7.08;100.00
79617;BME280;69097;52.132;5.422;2024-01-30T04:28:34;102660.19;;;7.09;100.00
79617;BME280;69097;52.132;5.422;2024-01-30T04:31:01;102654.25;;;7.11;100.00
79617;BME280;69097;52.132;5.422;2024-01-30T04:33:27;102654.25;;;7.11;100.00
79617;BME280;69097;52.132;5.422;2024-01-30T04:35:54;102647.47;;;7.12;100.00
79617;BME280;69097;52.132;5.422;2024-01-30T04:38:20;102640.75;;;7.13;100.00
79617;BME280;69097;52.132;5.422;2024-01-30T04:40:47;102635.59;;;7.15;99.92
79617;BME280;69097;52.132;5.422;2024-01-30T04:43:13;102631.19;;;7.14;99.81
79617;BME280;69097;52.132;5.422;2024-01-30T04:45:41;102643.59;;;7.16;100.00
79617;BME280;69097;52.132;5.422;2024-01-30T04:48:08;102622.44;;;7.15;99.78
79617;BME280;69097;52.132;5.422;2024-01-30T04:50:34;102634.44;;;7.16;99.90
79617;BME280;69097;52.132;5.422;2024-01-30T04:53:01;102634.44;;;7.16;100.00
79617;BME280;69097;52.132;5.422;2024-01-30T04:55:27;102636.03;;;7.17;100.00
79617;BME280;69097;52.132;5.422;2024-01-30T04:57:54;102642.44;;;7.17;99.87
79617;BME280;69097;52.132;5.422;2024-01-30T05:00:20;102629.28;;;7.18;99.96
79617;BME280;69097;52.132;5.422;2024-01-30T05:02:47;102644.03;;;7.18;99.92
79617;BME280;69097;52.132;5.422;2024-01-30T05:05:13;102642.88;;;7.19;100.00
79617;BME280;69097;52.132;5.422;2024-01-30T05:07:41;102643.66;;;7.20;99.79
79617;BME280;69097;52.132;5.422;2024-01-30T05:10:08;102643.66;;;7.20;99.78
79617;BME280;69097;52.132;5.422;2024-01-30T05:12:34;102643.28;;;7.21;99.70
79617;BME280;69097;52.132;5.422;2024-01-30T05:15:01;102646.09;;;7.21;99.83
79617;BME280;69097;52.132;5.422;2024-01-30T05:17:27;102630.97;;;7.22;99.69
79617;BME280;69097;52.132;5.422;2024-01-30T05:19:54;102643.75;;;7.23;100.00
79617;BME280;69097;52.132;5.422;2024-01-30T05:22:20;102637.78;;;7.25;99.85
79617;BME280;69097;52.132;5.422;2024-01-30T05:24:47;102641.03;;;7.27;100.00
79617;BME280;69097;52.132;5.422;2024-01-30T05:27:14;102633.91;;;7.29;100.00
79617;BME280;69097;52.132;5.422;2024-01-30T05:29:40;102621.19;;;7.32;100.00
79617;BME280;69097;52.132;5.422;2024-01-30T05:32:09;102615.69;;;7.35;100.00
79617;BME280;69097;52.132;5.422;2024-01-30T05:34:37;102612.97;;;7.39;100.00
79617;BME280;69097;52.132;5.422;2024-01-30T05:37:03;102618.19;;;7.40;100.00
79617;BME280;69097;52.132;5.422;2024-01-30T05:39:30;102607.00;;;7.40;100.00
79617;BME280;69097;52.132;5.422;2024-01-30T05:41:59;102615.38;;;7.40;100.00
79617;BME280;69097;52.132;5.422;2024-01-30T05:44:25;102625.75;;;7.40;100.00
79617;BME280;69097;52.132;5.422;2024-01-30T05:46:52;102638.97;;;7.43;100.00
79617;BME280;69097;52.132;5.422;2024-01-30T05:49:18;102632.59;;;7.42;100.00
79617;BME280;69097;52.132;5.422;2024-01-30T05:51:45;102624.22;;;7.42;100.00
79617;BME280;69097;52.132;5.422;2024-01-30T05:54:11;102621.78;;;7.41;100.00
79617;BME280;69097;52.132;5.422;2024-01-30T05:56:41;102630.97;;;7.41;100.00
79617;BME280;69097;52.132;5.422;2024-01-30T05:59:08;102642.16;;;7.41;100.00
79617;BME280;69097;52.132;5.422;2024-01-30T06:01:34;102636.91;;;7.40;100.00
79617;BME280;69097;52.132;5.422;2024-01-30T06:04:01;102638.91;;;7.39;100.00
79617;BME280;69097;52.132;5.422;2024-01-30T06:06:28;102643.31;;;7.40;100.00
79617;BME280;69097;52.132;5.422;2024-01-30T06:08:54;102639.34;;;7.41;100.00
79617;BME280;69097;52.132;5.422;2024-01-30T06:11:22;102638.97;;;7.43;100.00
79617;BME280;69097;52.132;5.422;2024-01-30T06:13:48;102639.78;;;7.43;100.00
79617;BME280;69097;52.132;5.422;2024-01-30T06:16:15;102631.03;;;7.45;100.00
79617;BME280;69097;52.132;5.422;2024-01-30T06:18:41;102636.28;;;7.46;100.00
79617;BME280;69097;52.132;5.422;2024-01-30T06:21:08;102633.88;;;7.48;100.00
79617;BME280;69097;52.132;5.422;2024-01-30T06:23:38;102643.91;;;7.49;100.00
79617;BME280;69097;52.132;5.422;2024-01-30T06:26:06;102636.69;;;7.48;100.00
79617;BME280;69097;52.132;5.422;2024-01-30T06:28:32;102623.16;;;7.50;100.00
79617;BME280;69097;52.132;5.422;2024-01-30T06:31:01;102624.81;;;7.52;100.00
79617;BME280;69097;52.132;5.422;2024-01-30T06:33:27;102635.59;;;7.53;100.00
79617;BME280;69097;52.132;5.422;2024-01-30T06:35:54;102643.16;;;7.53;100.00
79617;BME280;69097;52.132;5.422;2024-01-30T06:38:20;102635.22;;;7.55;100.00
79617;BME280;69097;52.132;5.422;2024-01-30T06:40:47;102640.00;;;7.54;100.00
79617;BME280;69097;52.132;5.422;2024-01-30T06:43:13;102636.03;;;7.55;100.00
79617;BME280;69097;52.132;5.422;2024-01-30T06:45:40;102645.22;;;7.56;100.00
79617;BME280;69097;52.132;5.422;2024-01-30T06:48:08;102639.25;;;7.57;100.00
79617;BME280;69097;52.132;5.422;2024-01-30T06:50:34;102657.19;;;7.56;100.00
79617;BME280;69097;52.132;5.422;2024-01-30T06:53:01;102655.22;;;7.57;100.00
79617;BME280;69097;52.132;5.422;2024-01-30T06:55:28;102651.22;;;7.58;100.00
79617;BME280;69097;52.132;5.422;2024-01-30T06:57:54;102652.41;;;7.57;100.00
79617;BME280;69097;52.132;5.422;2024-01-30T07:00:21;102653.22;;;7.57;100.00
79617;BME280;69097;52.132;5.422;2024-01-30T07:02:48;102651.22;;;7.58;100.00
79617;BME280;69097;52.132;5.422;2024-01-30T07:05:15;102653.22;;;7.57;100.00
79617;BME280;69097;52.132;5.422;2024-01-30T07:07:42;102659.59;;;7.58;100.00
79617;BME280;69097;52.132;5.422;2024-01-30T07:10:09;102656.44;;;7.59;100.00
79617;BME280;69097;52.132;5.422;2024-01-30T07:12:35;102652.84;;;7.59;100.00
79617;BME280;69097;52.132;5.422;2024-01-30T07:15:02;102653.66;;;7.59;100.00
79617;BME280;69097;52.132;5.422;2024-01-30T07:17:29;102652.84;;;7.59;100.00
79617;BME280;69097;52.132;5.422;2024-01-30T07:19:56;102657.25;;;7.60;100.00
79617;BME280;69097;52.132;5.422;2024-01-30T07:22:22;102659.25;;;7.59;100.00
79617;BME280;69097;52.132;5.422;2024-01-30T07:24:49;102664.91;;;7.63;100.00
79617;BME280;69097;52.132;5.422;2024-01-30T07:27:17;102670.84;;;7.61;100.00
79617;BME280;69097;52.132;5.422;2024-01-30T07:29:44;102656.53;;;7.63;100.00
79617;BME280;69097;52.132;5.422;2024-01-30T07:32:11;102673.72;;;7.65;100.00
79617;BME280;69097;52.132;5.422;2024-01-30T07:34:37;102677.34;;;7.65;100.00
79617;BME280;69097;52.132;5.422;2024-01-30T07:37:18;102675.31;;;7.66;100.00
79617;BME280;69097;52.132;5.422;2024-01-30T07:39:45;102671.38;;;7.67;100.00
79617;BME280;69097;52.132;5.422;2024-01-30T07:42:12;102684.97;;;7.68;100.00
79617;BME280;69097;52.132;5.422;2024-01-30T07:44:38;102682.63;;;7.70;100.00
79617;BME280;69097;52.132;5.422;2024-01-30T07:47:05;102681.06;;;7.73;100.00
79617;BME280;69097;52.132;5.422;2024-01-30T07:49:32;102683.47;;;7.74;100.00
79617;BME280;69097;52.132;5.422;2024-01-30T07:51:59;102690.31;;;7.77;100.00
79617;BME280;69097;52.132;5.422;2024-01-30T07:54:31;102684.38;;;7.78;100.00
79617;BME280;69097;52.132;5.422;2024-01-30T07:57:00;102689.22;;;7.81;100.00
79617;BME280;69097;52.132;5.422;2024-01-30T07:59:27;102683.69;;;7.85;100.00
79617;BME280;69097;52.132;5.422;2024-01-30T08:02:04;102687.72;;;7.87;100.00
79617;BME280;69097;52.132;5.422;2024-01-30T08:04:30;102693.38;;;7.91;100.00
79617;BME280;69097;52.132;5.422;2024-01-30T08:06:57;102690.22;;;7.92;100.00
79617;BME280;69097;52.132;5.422;2024-01-30T08:09:24;102695.09;;;7.95;100.00
79617;BME280;69097;52.132;5.422;2024-01-30T08:11:50;102703.53;;;7.99;100.00
79617;BME280;69097;52.132;5.422;2024-01-30T08:14:18;102700.00;;;8.02;100.00
79617;BME280;69097;52.132;5.422;2024-01-30T08:16:45;102691.69;;;8.05;100.00
79617;BME280;69097;52.132;5.422;2024-01-30T08:19:11;102686.16;;;8.09;100.00
79617;BME280;69097;52.132;5.422;2024-01-30T08:21:38;102689.03;;;8.12;100.00
79617;BME280;69097;52.132;5.422;2024-01-30T08:24:06;102692.66;;;8.16;100.00
79617;BME280;69097;52.132;5.422;2024-01-30T08:26:33;102688.34;;;8.19;100.00
79617;BME280;69097;52.132;5.422;2024-01-30T08:29:01;102693.19;;;8.22;100.00
79617;BME280;69097;52.132;5.422;2024-01-30T08:31:28;102694.09;;;8.26;100.00
79617;BME280;69097;52.132;5.422;2024-01-30T08:33:55;102697.28;;;8.28;100.00
79617;BME280;69097;52.132;5.422;2024-01-30T08:36:22;102687.00;;;8.32;100.00
79617;BME280;69097;52.132;5.422;2024-01-30T08:38:48;102690.66;;;8.36;100.00
79617;BME280;69097;52.132;5.422;2024-01-30T08:41:15;102688.72;;;8.40;100.00
79617;BME280;69097;52.132;5.422;2024-01-30T08:43:42;102698.44;;;8.46;100.00
79617;BME280;69097;52.132;5.422;2024-01-30T08:46:08;102684.53;;;8.49;100.00
79617;BME280;69097;52.132;5.422;2024-01-30T08:48:36;102691.41;;;8.55;100.00
79617;BME280;69097;52.132;5.422;2024-01-30T08:51:03;102692.69;;;8.61;100.00
79617;BME280;69097;52.132;5.422;2024-01-30T08:53:29;102693.19;;;8.67;100.00
79617;BME280;69097;52.132;5.422;2024-01-30T08:55:56;102695.66;;;8.72;100.00
79617;BME280;69097;52.132;5.422;2024-01-30T08:58:25;102694.19;;;8.78;100.00
79617;BME280;69097;52.132;5.422;2024-01-30T09:00:52;102703.41;;;8.82;100.00
79617;BME280;69097;52.132;5.422;2024-01-30T09:03:19;102700.72;;;8.89;100.00
79617;BME280;69097;52.132;5.422;2024-01-30T09:05:45;102710.38;;;8.92;100.00
79617;BME280;69097;52.132;5.422;2024-01-30T09:08:12;102706.88;;;8.98;100.00
79617;BME280;69097;52.132;5.422;2024-01-30T09:10:39;102699.31;;;9.02;100.00
79617;BME280;69097;52.132;5.422;2024-01-30T09:13:05;102698.66;;;9.12;100.00
79617;BME280;69097;52.132;5.422;2024-01-30T09:15:34;102697.59;;;9.20;100.00
79617;BME280;69097;52.132;5.422;2024-01-30T09:18:02;102690.16;;;9.31;100.00
79617;BME280;69097;52.132;5.422;2024-01-30T09:20:28;102704.25;;;9.38;100.00
79617;BME280;69097;52.132;5.422;2024-01-30T09:22:59;102707.94;;;9.46;100.00
79617;BME280;69097;52.132;5.422;2024-01-30T09:25:26;102718.34;;;9.45;100.00
79617;BME280;69097;52.132;5.422;2024-01-30T09:27:52;102708.81;;;9.50;100.00
79617;BME280;69097;52.132;5.422;2024-01-30T09:30:22;102720.00;;;9.50;100.00
79617;BME280;69097;52.132;5.422;2024-01-30T09:36:32;102712.81;;;9.52;100.00
79617;BME280;69097;52.132;5.422;2024-01-30T09:39:05;102717.25;;;9.53;100.00
79617;BME280;69097;52.132;5.422;2024-01-30T09:41:38;102724.84;;;9.53;100.00
79617;BME280;69097;52.132;5.422;2024-01-30T09:44:08;102724.84;;;9.53;100.00
79617;BME280;69097;52.132;5.422;2024-01-30T09:46:35;102728.47;;;9.53;100.00
79617;BME280;69097;52.132;5.422;2024-01-30T09:49:02;102736.47;;;9.55;100.00
79617;BME280;69097;52.132;5.422;2024-01-30T09:51:30;102726.81;;;9.52;100.00
79617;BME280;69097;52.132;5.422;2024-01-30T09:53:56;102726.09;;;9.55;100.00
79617;BME280;69097;52.132;5.422;2024-01-30T09:56:23;102734.91;;;9.57;100.00
79617;BME280;69097;52.132;5.422;2024-01-30T09:58:49;102724.13;;;9.59;100.00
79617;BME280;69097;52.132;5.422;2024-01-30T10:01:17;102735.34;;;9.59;100.00
79617;BME280;69097;52.132;5.422;2024-01-30T10:03:45;102746.53;;;9.59;100.00
79617;BME280;69097;52.132;5.422;2024-01-30T10:06:13;102737.75;;;9.61;100.00
79617;BME280;69097;52.132;5.422;2024-01-30T10:08:42;102748.16;;;9.60;100.00
79617;BME280;69097;52.132;5.422;2024-01-30T10:11:08;102741.38;;;9.61;100.00
79617;BME280;69097;52.132;5.422;2024-01-30T10:13:35;102732.97;;;9.61;100.00
79617;BME280;69097;52.132;5.422;2024-01-30T10:16:02;102729.78;;;9.63;100.00
79617;BME280;69097;52.132;5.422;2024-01-30T10:18:29;102740.19;;;9.62;100.00
79617;BME280;69097;52.132;5.422;2024-01-30T10:20:56;102747.84;;;9.65;100.00
79617;BME280;69097;52.132;5.422;2024-01-30T10:23:22;102734.28;;;9.71;100.00
79617;BME280;69097;52.132;5.422;2024-01-30T10:25:51;102732.28;;;9.71;100.00
79617;BME280;69097;52.132;5.422;2024-01-30T10:28:18;102723.94;;;9.75;100.00
79617;BME280;69097;52.132;5.422;2024-01-30T10:30:45;102734.78;;;9.80;100.00
79617;BME280;69097;52.132;5.422;2024-01-30T10:33:11;102738.06;;;9.85;100.00
79617;BME280;69097;52.132;5.422;2024-01-30T10:35:38;102741.34;;;9.91;100.00
79617;BME280;69097;52.132;5.422;2024-01-30T10:38:07;102745.38;;;9.93;100.00
79617;BME280;69097;52.132;5.422;2024-01-30T10:40:37;102741.47;;;10.02;100.00
79617;BME280;69097;52.132;5.422;2024-01-30T10:43:05;102727.97;;;10.11;99.69
79617;BME280;69097;52.132;5.422;2024-01-30T10:45:38;102724.41;;;10.14;99.62
79617;BME280;69097;52.132;5.422;2024-01-30T10:48:09;102736.00;;;10.12;99.44
79617;BME280;69097;52.132;5.422;2024-01-30T10:50:36;102736.31;;;10.07;99.71
79617;BME280;69097;52.132;5.422;2024-01-30T10:53:16;102731.91;;;10.06;99.93
79617;BME280;69097;52.132;5.422;2024-01-30T10:55:44;102732.34;;;10.08;99.65
79617;BME280;69097;52.132;5.422;2024-01-30T10:58:13;102751.16;;;10.08;99.20
79617;BME280;69097;52.132;5.422;2024-01-30T11:00:44;102744.38;;;10.09;99.45
79617;BME280;69097;52.132;5.422;2024-01-30T11:03:11;102750.41;;;10.11;98.76
79617;BME280;69097;52.132;5.422;2024-01-30T11:05:40;102756.03;;;10.11;98.77
79617;BME280;69097;52.132;5.422;2024-01-30T11:08:14;102747.22;;;10.12;98.31
79617;BME280;69097;52.132;5.422;2024-01-30T11:10:46;102755.25;;;10.14;98.18
79617;BME280;69097;52.132;5.422;2024-01-30T11:13:15;102760.09;;;10.17;97.49
79617;BME280;69097;52.132;5.422;2024-01-30T11:15:42;102754.13;;;10.22;97.35
79617;BME280;69097;52.132;5.422;2024-01-30T11:18:09;102757.44;;;10.31;97.14
79617;BME280;69097;52.132;5.422;2024-01-30T11:20:37;102761.88;;;10.35;96.86
79617;BME280;69097;52.132;5.422;2024-01-30T11:23:03;102756.28;;;10.35;96.58
79617;BME280;69097;52.132;5.422;2024-01-30T11:25:33;102745.44;;;10.34;96.49
79617;BME280;69097;52.132;5.422;2024-01-30T11:28:00;102740.25;;;10.36;95.63
79617;BME280;69097;52.132;5.422;2024-01-30T11:30:31;102757.09;;;10.36;96.09
79617;BME280;69097;52.132;5.422;2024-01-30T11:35:45;102760.28;;;10.34;95.21
79617;BME280;69097;52.132;5.422;2024-01-30T11:38:15;102762.66;;;10.32;94.78
79617;BME280;69097;52.132;5.422;2024-01-30T11:40:43;102785.50;;;10.31;94.47
79617;BME280;69097;52.132;5.422;2024-01-30T11:43:10;102777.84;;;10.28;94.45
79617;BME280;69097;52.132;5.422;2024-01-30T11:45:38;102787.81;;;10.25;93.93
79617;BME280;69097;52.132;5.422;2024-01-30T11:48:06;102788.97;;;10.21;93.58
79617;BME280;69097;52.132;5.422;2024-01-30T11:50:34;102784.09;;;10.14;93.18
79617;BME280;69097;52.132;5.422;2024-01-30T11:53:01;102791.66;;;10.10;93.11
79617;BME280;69097;52.132;5.422;2024-01-30T11:55:31;102792.78;;;10.06;92.99
79617;BME280;69097;52.132;5.422;2024-01-30T11:58:01;102780.72;;;10.02;92.50
79617;BME280;69097;52.132;5.422;2024-01-30T12:00:27;102793.41;;;9.92;92.80
79617;BME280;69097;52.132;5.422;2024-01-30T12:02:55;102790.94;;;9.87;92.43
79617;BME280;69097;52.132;5.422;2024-01-30T12:05:25;102784.53;;;9.86;92.67
79617;BME280;69097;52.132;5.422;2024-01-30T12:07:52;102796.16;;;9.88;92.49
79617;BME280;69097;52.132;5.422;2024-01-30T12:10:19;102792.56;;;9.88;92.55
79617;BME280;69097;52.132;5.422;2024-01-30T12:12:48;102802.13;;;9.83;92.41
79617;BME280;69097;52.132;5.422;2024-01-30T12:15:16;102793.69;;;9.83;92.64
79617;BME280;69097;52.132;5.422;2024-01-30T12:17:44;102799.69;;;9.82;91.73
79617;BME280;69097;52.132;5.422;2024-01-30T12:20:17;102792.44;;;9.77;91.55
79617;BME280;69097;52.132;5.422;2024-01-30T12:22:48;102802.44;;;9.78;92.40
79617;BME280;69097;52.132;5.422;2024-01-30T12:25:23;102804.00;;;9.76;92.16
79617;BME280;69097;52.132;5.422;2024-01-30T12:27:50;102813.16;;;9.73;91.88
79617;BME280;69097;52.132;5.422;2024-01-30T12:30:20;102828.66;;;9.63;91.50
79617;BME280;69097;52.132;5.422;2024-01-30T12:32:51;102839.31;;;9.54;92.00
79617;BME280;69097;52.132;5.422;2024-01-30T12:35:19;102854.41;;;9.46;92.15
79617;BME280;69097;52.132;5.422;2024-01-30T12:37:48;102849.50;;;9.40;92.10
79617;BME280;69097;52.132;5.422;2024-01-30T12:40:16;102840.56;;;9.31;92.23
79617;BME280;69097;52.132;5.422;2024-01-30T12:42:46;102849.72;;;9.28;92.48
79617;BME280;69097;52.132;5.422;2024-01-30T12:45:15;102851.69;;;9.27;91.93
79617;BME280;69097;52.132;5.422;2024-01-30T12:47:42;102851.28;;;9.25;91.66
79617;BME280;69097;52.132;5.422;2024-01-30T12:50:08;102844.06;;;9.24;92.37
79617;BME280;69097;52.132;5.422;2024-01-30T12:52:36;102848.47;;;9.25;91.58
79617;BME280;69097;52.132;5.422;2024-01-30T12:55:03;102846.03;;;9.24;91.65
79617;BME280;69097;52.132;5.422;2024-01-30T12:57:30;102848.03;;;9.23;91.56